sensor_id;sensor_type;location;lat;lon;timestamp;P1;durP1;ratioP1;P2;durP2;ratioP2
21494;SDS011;10909;53.590;10.054;2023-06-26T00:00:53;4.82;;;4.43;;
21494;SDS011;10909;53.590;10.054;2023-06-26T00:03:18;4.85;;;4.47;;
21494;SDS011;10909;53.590;10.054;2023-06-26T00:05:45;4.80;;;4.40;;
21494;SDS011;10909;53.590;10.054;2023-06-26T00:08:10;4.78;;;4.38;;
21494;SDS011;10909;53.590;10.054;2023-06-26T00:10:36;5.32;;;4.68;;
21494;SDS011;10909;53.590;10.054;2023-06-26T00:13:04;4.53;;;4.20;;
21494;SDS011;10909;53.590;10.054;2023-06-26T00:15:31;5.15;;;4.75;;
21494;SDS011;10909;53.590;10.054;2023-06-26T00:17:57;4.93;;;4.53;;
21494;SDS011;10909;53.590;10.054;2023-06-26T00:20:23;5.13;;;4.65;;
21494;SDS011;10909;53.590;10.054;2023-06-26T00:22:50;5.25;;;4.85;;
21494;SDS011;10909;53.590;10.054;2023-06-26T00:25:16;4.85;;;4.45;;
21494;SDS011;10909;53.590;10.054;2023-06-26T00:27:42;5.35;;;4.85;;
21494;SDS011;10909;53.590;10.054;2023-06-26T00:30:07;4.43;;;4.13;;
21494;SDS011;10909;53.590;10.054;2023-06-26T00:32:33;4.97;;;4.57;;
21494;SDS011;10909;53.590;10.054;2023-06-26T00:34:59;5.15;;;4.75;;
21494;SDS011;10909;53.590;10.054;2023-06-26T00:37:27;5.53;;;4.75;;
21494;SDS011;10909;53.590;10.054;2023-06-26T00:39:53;5.35;;;4.85;;
21494;SDS011;10909;53.590;10.054;2023-06-26T00:42:18;5.50;;;5.00;;
21494;SDS011;10909;53.590;10.054;2023-06-26T00:44:44;4.93;;;4.53;;
21494;SDS011;10909;53.590;10.054;2023-06-26T00:47:10;4.95;;;4.55;;
21494;SDS011;10909;53.590;10.054;2023-06-26T00:49:39;4.95;;;4.55;;
21494;SDS011;10909;53.590;10.054;2023-06-26T00:52:05;5.43;;;5.03;;
21494;SDS011;10909;53.590;10.054;2023-06-26T00:54:31;5.10;;;4.70;;
21494;SDS011;10909;53.590;10.054;2023-06-26T00:56:57;5.32;;;4.93;;
21494;SDS011;10909;53.590;10.054;2023-06-26T00:59:23;5.50;;;5.00;;
21494;SDS011;10909;53.590;10.054;2023-06-26T01:01:49;5.03;;;4.63;;
21494;SDS011;10909;53.590;10.054;2023-06-26T01:04:14;5.35;;;4.95;;
21494;SDS011;10909;53.590;10.054;2023-06-26T01:06:46;5.20;;;4.80;;
21494;SDS011;10909;53.590;10.054;2023-06-26T01:09:20;4.90;;;4.50;;
21494;SDS011;10909;53.590;10.054;2023-06-26T01:11:47;4.82;;;4.43;;
21494;SDS011;10909;53.590;10.054;2023-06-26T01:14:12;5.15;;;4.75;;
21494;SDS011;10909;53.590;10.054;2023-06-26T01:16:39;4.95;;;4.55;;
21494;SDS011;10909;53.590;10.054;2023-06-26T01:19:09;5.32;;;4.82;;
21494;SDS011;10909;53.590;10.054;2023-06-26T01:21:40;5.15;;;4.68;;
21494;SDS011;10909;53.590;10.054;2023-06-26T01:24:17;4.60;;;4.20;;
21494;SDS011;10909;53.590;10.054;2023-06-26T01:26:47;5.00;;;4.60;;
21494;SDS011;10909;53.590;10.054;2023-06-26T01:29:15;5.18;;;4.78;;
21494;SDS011;10909;53.590;10.054;2023-06-26T01:31:43;5.75;;;5.25;;
21494;SDS011;10909;53.590;10.054;2023-06-26T01:34:11;4.97;;;4.55;;
21494;SDS011;10909;53.590;10.054;2023-06-26T01:36:37;5.63;;;5.13;;
21494;SDS011;10909;53.590;10.054;2023-06-26T01:39:04;5.13;;;4.72;;
21494;SDS011;10909;53.590;10.054;2023-06-26T01:41:29;5.55;;;5.05;;
21494;SDS011;10909;53.590;10.054;2023-06-26T01:46:40;5.25;;;4.85;;
21494;SDS011;10909;53.590;10.054;2023-06-26T01:49:21;5.20;;;4.80;;
21494;SDS011;10909;53.590;10.054;2023-06-26T01:51:55;5.60;;;5.10;;
21494;SDS011;10909;53.590;10.054;2023-06-26T01:54:34;5.38;;;4.88;;
21494;SDS011;10909;53.590;10.054;2023-06-26T01:57:08;5.55;;;5.10;;
21494;SDS011;10909;53.590;10.054;2023-06-26T01:59:35;5.63;;;5.13;;
21494;SDS011;10909;53.590;10.054;2023-06-26T02:02:06;5.30;;;4.90;;
21494;SDS011;10909;53.590;10.054;2023-06-26T02:04:32;5.03;;;4.63;;
21494;SDS011;10909;53.590;10.054;2023-06-26T02:06:58;5.35;;;4.95;;
21494;SDS011;10909;53.590;10.054;2023-06-26T02:09:23;5.50;;;4.95;;
21494;SDS011;10909;53.590;10.054;2023-06-26T02:11:49;5.03;;;4.53;;
21494;SDS011;10909;53.590;10.054;2023-06-26T02:14:14;5.35;;;4.95;;
21494;SDS011;10909;53.590;10.054;2023-06-26T02:16:40;5.28;;;4.88;;
21494;SDS011;10909;53.590;10.054;2023-06-26T02:19:06;5.85;;;5.22;;
21494;SDS011;10909;53.590;10.054;2023-06-26T02:21:31;5.63;;;5.22;;
21494;SDS011;10909;53.590;10.054;2023-06-26T02:23:57;5.15;;;4.75;;
21494;SDS011;10909;53.590;10.054;2023-06-26T02:26:22;5.35;;;4.93;;
21494;SDS011;10909;53.590;10.054;2023-06-26T02:28:48;5.25;;;4.82;;
21494;SDS011;10909;53.590;10.054;2023-06-26T02:31:14;4.95;;;4.55;;
21494;SDS011;10909;53.590;10.054;2023-06-26T02:33:41;5.60;;;5.10;;
21494;SDS011;10909;53.590;10.054;2023-06-26T02:36:07;5.53;;;5.03;;
21494;SDS011;10909;53.590;10.054;2023-06-26T02:38:33;4.85;;;4.45;;
21494;SDS011;10909;53.590;10.054;2023-06-26T02:40:58;5.57;;;5.18;;
21494;SDS011;10909;53.590;10.054;2023-06-26T02:43:24;5.53;;;5.07;;
21494;SDS011;10909;53.590;10.054;2023-06-26T02:45:50;5.07;;;4.68;;
21494;SDS011;10909;53.590;10.054;2023-06-26T02:48:16;5.30;;;4.80;;
21494;SDS011;10909;53.590;10.054;2023-06-26T02:50:41;5.03;;;4.63;;
21494;SDS011;10909;53.590;10.054;2023-06-26T02:53:10;5.00;;;4.60;;
21494;SDS011;10909;53.590;10.054;2023-06-26T02:55:36;5.18;;;4.78;;
21494;SDS011;10909;53.590;10.054;2023-06-26T02:58:02;5.20;;;4.80;;
21494;SDS011;10909;53.590;10.054;2023-06-26T03:00:28;4.75;;;4.35;;
21494;SDS011;10909;53.590;10.054;2023-06-26T03:02:55;4.95;;;4.55;;
21494;SDS011;10909;53.590;10.054;2023-06-26T03:05:20;4.70;;;4.40;;
21494;SDS011;10909;53.590;10.054;2023-06-26T03:07:48;4.75;;;4.35;;
21494;SDS011;10909;53.590;10.054;2023-06-26T03:10:15;4.80;;;4.40;;
21494;SDS011;10909;53.590;10.054;2023-06-26T03:12:41;5.22;;;4.75;;
21494;SDS011;10909;53.590;10.054;2023-06-26T03:15:08;5.00;;;4.60;;
21494;SDS011;10909;53.590;10.054;2023-06-26T03:17:33;4.85;;;4.45;;
21494;SDS011;10909;53.590;10.054;2023-06-26T03:19:59;5.20;;;4.70;;
21494;SDS011;10909;53.590;10.054;2023-06-26T03:22:25;4.68;;;4.25;;
21494;SDS011;10909;53.590;10.054;2023-06-26T03:24:50;4.68;;;4.28;;
21494;SDS011;10909;53.590;10.054;2023-06-26T03:27:16;5.22;;;4.72;;
21494;SDS011;10909;53.590;10.054;2023-06-26T03:29:42;4.85;;;4.45;;
21494;SDS011;10909;53.590;10.054;2023-06-26T03:32:07;4.88;;;4.47;;
21494;SDS011;10909;53.590;10.054;2023-06-26T03:34:34;5.00;;;4.60;;
21494;SDS011;10909;53.590;10.054;2023-06-26T03:36:59;4.45;;;4.07;;
21494;SDS011;10909;53.590;10.054;2023-06-26T03:39:27;4.60;;;4.20;;
21494;SDS011;10909;53.590;10.054;2023-06-26T03:41:52;4.78;;;4.38;;
21494;SDS011;10909;53.590;10.054;2023-06-26T03:44:20;4.47;;;4.07;;
21494;SDS011;10909;53.590;10.054;2023-06-26T03:46:47;4.57;;;4.20;;
21494;SDS011;10909;53.590;10.054;2023-06-26T03:49:13;4.75;;;4.35;;
21494;SDS011;10909;53.590;10.054;2023-06-26T03:51:38;4.90;;;4.43;;
21494;SDS011;10909;53.590;10.054;2023-06-26T03:54:04;4.70;;;4.30;;
21494;SDS011;10909;53.590;10.054;2023-06-26T03:56:30;4.47;;;4.07;;
21494;SDS011;10909;53.590;10.054;2023-06-26T03:58:55;4.97;;;4.57;;
21494;SDS011;10909;53.590;10.054;2023-06-26T04:01:22;4.60;;;4.20;;
21494;SDS011;10909;53.590;10.054;2023-06-26T04:03:47;4.65;;;4.25;;
21494;SDS011;10909;53.590;10.054;2023-06-26T04:06:13;4.97;;;4.57;;
21494;SDS011;10909;53.590;10.054;2023-06-26T04:08:38;4.32;;;3.92;;
21494;SDS011;10909;53.590;10.054;2023-06-26T04:11:04;4.90;;;4.50;;
21494;SDS011;10909;53.590;10.054;2023-06-26T04:13:30;4.90;;;4.50;;
21494;SDS011;10909;53.590;10.054;2023-06-26T04:15:55;4.30;;;4.00;;
21494;SDS011;10909;53.590;10.054;2023-06-26T04:18:21;5.07;;;4.57;;
21494;SDS011;10909;53.590;10.054;2023-06-26T04:23:32;4.65;;;4.25;;
21494;SDS011;10909;53.590;10.054;2023-06-26T04:25:58;4.72;;;4.22;;
21494;SDS011;10909;53.590;10.054;2023-06-26T04:28:24;4.45;;;4.05;;
21494;SDS011;10909;53.590;10.054;2023-06-26T04:30:50;4.90;;;4.50;;
21494;SDS011;10909;53.590;10.054;2023-06-26T04:33:16;4.57;;;4.18;;
21494;SDS011;10909;53.590;10.054;2023-06-26T04:35:42;4.75;;;4.35;;
21494;SDS011;10909;53.590;10.054;2023-06-26T04:38:09;4.65;;;4.25;;
21494;SDS011;10909;53.590;10.054;2023-06-26T04:40:36;4.47;;;4.07;;
21494;SDS011;10909;53.590;10.054;2023-06-26T04:43:02;4.82;;;4.43;;
21494;SDS011;10909;53.590;10.054;2023-06-26T04:45:28;4.68;;;4.28;;
21494;SDS011;10909;53.590;10.054;2023-06-26T04:47:53;4.85;;;4.43;;
21494;SDS011;10909;53.590;10.054;2023-06-26T04:50:19;4.50;;;4.10;;
21494;SDS011;10909;53.590;10.054;2023-06-26T04:52:44;4.15;;;3.78;;
21494;SDS011;10909;53.590;10.054;2023-06-26T04:55:10;4.57;;;4.18;;
21494;SDS011;10909;53.590;10.054;2023-06-26T04:57:36;4.95;;;4.45;;
21494;SDS011;10909;53.590;10.054;2023-06-26T05:00:02;4.20;;;3.80;;
21494;SDS011;10909;53.590;10.054;2023-06-26T05:02:31;5.00;;;4.50;;
21494;SDS011;10909;53.590;10.054;2023-06-26T05:04:56;4.45;;;4.05;;
21494;SDS011;10909;53.590;10.054;2023-06-26T05:07:22;4.70;;;4.25;;
21494;SDS011;10909;53.590;10.054;2023-06-26T05:09:48;4.80;;;4.40;;
21494;SDS011;10909;53.590;10.054;2023-06-26T05:12:13;4.78;;;4.38;;
21494;SDS011;10909;53.590;10.054;2023-06-26T05:14:39;4.75;;;4.20;;
21494;SDS011;10909;53.590;10.054;2023-06-26T05:17:07;5.35;;;4.32;;
21494;SDS011;10909;53.590;10.054;2023-06-26T05:19:33;4.25;;;3.88;;
21494;SDS011;10909;53.590;10.054;2023-06-26T05:21:59;5.03;;;4.53;;
21494;SDS011;10909;53.590;10.054;2023-06-26T05:24:32;4.70;;;4.30;;
21494;SDS011;10909;53.590;10.054;2023-06-26T05:27:02;4.55;;;4.13;;
21494;SDS011;10909;53.590;10.054;2023-06-26T05:29:30;4.97;;;4.10;;
21494;SDS011;10909;53.590;10.054;2023-06-26T05:31:56;4.22;;;3.92;;
21494;SDS011;10909;53.590;10.054;2023-06-26T05:34:22;4.53;;;4.13;;
21494;SDS011;10909;53.590;10.054;2023-06-26T05:36:52;4.38;;;4.05;;
21494;SDS011;10909;53.590;10.054;2023-06-26T05:39:25;5.38;;;4.55;;
21494;SDS011;10909;53.590;10.054;2023-06-26T05:41:53;6.10;;;4.20;;
21494;SDS011;10909;53.590;10.054;2023-06-26T05:44:21;4.47;;;4.07;;
21494;SDS011;10909;53.590;10.054;2023-06-26T05:46:51;4.65;;;4.25;;
21494;SDS011;10909;53.590;10.054;2023-06-26T05:49:20;5.40;;;4.03;;
21494;SDS011;10909;53.590;10.054;2023-06-26T05:51:47;4.72;;;4.25;;
21494;SDS011;10909;53.590;10.054;2023-06-26T05:54:14;4.32;;;4.00;;
21494;SDS011;10909;53.590;10.054;2023-06-26T05:56:40;4.85;;;3.88;;
21494;SDS011;10909;53.590;10.054;2023-06-26T05:59:06;4.60;;;4.20;;
21494;SDS011;10909;53.590;10.054;2023-06-26T06:01:34;4.43;;;4.03;;
21494;SDS011;10909;53.590;10.054;2023-06-26T06:04:04;4.63;;;4.22;;
21494;SDS011;10909;53.590;10.054;2023-06-26T06:06:29;4.85;;;4.30;;
21494;SDS011;10909;53.590;10.054;2023-06-26T06:08:55;4.10;;;3.78;;
21494;SDS011;10909;53.590;10.054;2023-06-26T06:11:21;6.18;;;4.20;;
21494;SDS011;10909;53.590;10.054;2023-06-26T06:13:47;4.30;;;4.00;;
21494;SDS011;10909;53.590;10.054;2023-06-26T06:16:13;4.55;;;3.95;;
21494;SDS011;10909;53.590;10.054;2023-06-26T06:18:39;4.45;;;4.03;;
21494;SDS011;10909;53.590;10.054;2023-06-26T06:21:04;5.15;;;4.60;;
21494;SDS011;10909;53.590;10.054;2023-06-26T06:23:30;4.57;;;4.15;;
21494;SDS011;10909;53.590;10.054;2023-06-26T06:25:55;4.70;;;4.30;;
21494;SDS011;10909;53.590;10.054;2023-06-26T06:28:21;6.45;;;4.40;;
21494;SDS011;10909;53.590;10.054;2023-06-26T06:30:47;4.95;;;3.97;;
21494;SDS011;10909;53.590;10.054;2023-06-26T06:33:15;4.65;;;4.25;;
21494;SDS011;10909;53.590;10.054;2023-06-26T06:35:41;4.40;;;4.00;;
21494;SDS011;10909;53.590;10.054;2023-06-26T06:38:07;4.72;;;4.32;;
21494;SDS011;10909;53.590;10.054;2023-06-26T06:40:33;4.65;;;4.25;;
21494;SDS011;10909;53.590;10.054;2023-06-26T06:42:58;4.78;;;4.38;;
21494;SDS011;10909;53.590;10.054;2023-06-26T06:45:24;5.00;;;4.50;;
21494;SDS011;10909;53.590;10.054;2023-06-26T06:47:49;4.63;;;4.13;;
21494;SDS011;10909;53.590;10.054;2023-06-26T06:50:15;4.00;;;3.70;;
21494;SDS011;10909;53.590;10.054;2023-06-26T06:52:42;4.32;;;3.92;;
21494;SDS011;10909;53.590;10.054;2023-06-26T06:55:09;4.97;;;4.00;;
21494;SDS011;10909;53.590;10.054;2023-06-26T06:57:38;5.25;;;4.30;;
21494;SDS011;10909;53.590;10.054;2023-06-26T07:00:08;5.25;;;4.18;;
21494;SDS011;10909;53.590;10.054;2023-06-26T07:02:36;4.68;;;4.25;;
21494;SDS011;10909;53.590;10.054;2023-06-26T07:05:06;5.05;;;4.68;;
21494;SDS011;10909;53.590;10.054;2023-06-26T07:07:33;4.28;;;3.97;;
21494;SDS011;10909;53.590;10.054;2023-06-26T07:10:00;4.43;;;4.13;;
21494;SDS011;10909;53.590;10.054;2023-06-26T07:12:33;4.60;;;4.20;;
21494;SDS011;10909;53.590;10.054;2023-06-26T07:15:00;4.32;;;3.95;;
21494;SDS011;10909;53.590;10.054;2023-06-26T07:17:33;4.78;;;4.07;;
21494;SDS011;10909;53.590;10.054;2023-06-26T07:19:59;4.32;;;4.00;;
21494;SDS011;10909;53.590;10.054;2023-06-26T07:22:33;4.63;;;4.22;;
21494;SDS011;10909;53.590;10.054;2023-06-26T07:25:00;5.00;;;4.60;;
21494;SDS011;10909;53.590;10.054;2023-06-26T07:27:28;5.10;;;4.70;;
21494;SDS011;10909;53.590;10.054;2023-06-26T07:29:54;4.72;;;4.38;;
21494;SDS011;10909;53.590;10.054;2023-06-26T07:32:23;5.00;;;4.50;;
21494;SDS011;10909;53.590;10.054;2023-06-26T07:34:50;4.93;;;4.57;;
21494;SDS011;10909;53.590;10.054;2023-06-26T07:37:20;7.13;;;4.55;;
21494;SDS011;10909;53.590;10.054;2023-06-26T07:39:48;4.82;;;4.43;;
21494;SDS011;10909;53.590;10.054;2023-06-26T07:42:21;4.35;;;4.03;;
21494;SDS011;10909;53.590;10.054;2023-06-26T07:44:46;4.80;;;4.40;;
21494;SDS011;10909;53.590;10.054;2023-06-26T07:47:12;4.70;;;4.22;;
21494;SDS011;10909;53.590;10.054;2023-06-26T07:49:38;5.78;;;4.20;;
21494;SDS011;10909;53.590;10.054;2023-06-26T07:52:07;4.60;;;4.20;;
21494;SDS011;10909;53.590;10.054;2023-06-26T07:54:35;4.60;;;4.30;;
21494;SDS011;10909;53.590;10.054;2023-06-26T07:57:01;4.63;;;4.22;;
21494;SDS011;10909;53.590;10.054;2023-06-26T07:59:32;5.10;;;4.15;;
21494;SDS011;10909;53.590;10.054;2023-06-26T08:01:58;5.10;;;4.70;;
21494;SDS011;10909;53.590;10.054;2023-06-26T08:04:25;4.88;;;4.47;;
21494;SDS011;10909;53.590;10.054;2023-06-26T08:06:53;5.03;;;4.63;;
21494;SDS011;10909;53.590;10.054;2023-06-26T08:09:20;5.13;;;4.72;;
21494;SDS011;10909;53.590;10.054;2023-06-26T08:11:47;4.53;;;4.13;;
21494;SDS011;10909;53.590;10.054;2023-06-26T08:14:13;5.18;;;4.60;;
21494;SDS011;10909;53.590;10.054;2023-06-26T08:16:40;4.88;;;4.47;;
21494;SDS011;10909;53.590;10.054;2023-06-26T08:19:12;5.07;;;4.57;;
21494;SDS011;10909;53.590;10.054;2023-06-26T08:21:39;4.75;;;4.38;;
21494;SDS011;10909;53.590;10.054;2023-06-26T08:24:08;5.03;;;4.63;;
21494;SDS011;10909;53.590;10.054;2023-06-26T08:26:35;4.72;;;4.32;;
21494;SDS011;10909;53.590;10.054;2023-06-26T08:29:01;4.63;;;4.22;;
21494;SDS011;10909;53.590;10.054;2023-06-26T08:31:32;5.38;;;4.97;;
21494;SDS011;10909;53.590;10.054;2023-06-26T08:33:59;4.60;;;4.30;;
21494;SDS011;10909;53.590;10.054;2023-06-26T08:36:28;4.70;;;4.22;;
21494;SDS011;10909;53.590;10.054;2023-06-26T08:38:53;4.40;;;4.10;;
21494;SDS011;10909;53.590;10.054;2023-06-26T08:41:20;4.78;;;4.47;;
21494;SDS011;10909;53.590;10.054;2023-06-26T08:43:46;5.32;;;4.93;;
21494;SDS011;10909;53.590;10.054;2023-06-26T08:46:13;4.65;;;4.25;;
21494;SDS011;10909;53.590;10.054;2023-06-26T08:48:39;5.10;;;4.70;;
21494;SDS011;10909;53.590;10.054;2023-06-26T08:51:11;3.92;;;3.53;;
21494;SDS011;10909;53.590;10.054;2023-06-26T08:56:24;5.28;;;4.88;;
21494;SDS011;10909;53.590;10.054;2023-06-26T08:58:52;6.75;;;4.60;;
21494;SDS011;10909;53.590;10.054;2023-06-26T09:01:18;5.43;;;4.70;;
21494;SDS011;10909;53.590;10.054;2023-06-26T09:03:45;4.38;;;4.07;;
21494;SDS011;10909;53.590;10.054;2023-06-26T09:06:11;5.22;;;4.72;;
21494;SDS011;10909;53.590;10.054;2023-06-26T09:08:37;5.53;;;5.05;;
21494;SDS011;10909;53.590;10.054;2023-06-26T09:11:06;6.72;;;5.10;;
21494;SDS011;10909;53.590;10.054;2023-06-26T09:13:32;5.25;;;4.80;;
21494;SDS011;10909;53.590;10.054;2023-06-26T09:15:58;5.53;;;5.00;;
21494;SDS011;10909;53.590;10.054;2023-06-26T09:18:24;5.30;;;4.90;;
21494;SDS011;10909;53.590;10.054;2023-06-26T09:20:50;5.22;;;4.82;;
21494;SDS011;10909;53.590;10.054;2023-06-26T09:23:16;6.53;;;5.95;;
21494;SDS011;10909;53.590;10.054;2023-06-26T09:25:42;6.15;;;5.65;;
21494;SDS011;10909;53.590;10.054;2023-06-26T09:28:10;6.38;;;5.80;;
21494;SDS011;10909;53.590;10.054;2023-06-26T09:30:40;5.35;;;4.95;;
21494;SDS011;10909;53.590;10.054;2023-06-26T09:35:44;5.85;;;5.32;;
21494;SDS011;10909;53.590;10.054;2023-06-26T09:38:13;6.30;;;5.70;;
21494;SDS011;10909;53.590;10.054;2023-06-26T09:40:40;7.80;;;7.03;;
21494;SDS011;10909;53.590;10.054;2023-06-26T09:43:09;6.80;;;6.30;;
21494;SDS011;10909;53.590;10.054;2023-06-26T09:45:39;6.55;;;5.95;;
21494;SDS011;10909;53.590;10.054;2023-06-26T09:48:06;6.43;;;5.93;;
21494;SDS011;10909;53.590;10.054;2023-06-26T09:50:34;7.15;;;6.28;;
21494;SDS011;10909;53.590;10.054;2023-06-26T09:53:08;7.15;;;6.15;;
21494;SDS011;10909;53.590;10.054;2023-06-26T09:55:37;6.65;;;6.05;;
21494;SDS011;10909;53.590;10.054;2023-06-26T09:58:10;7.15;;;6.55;;
21494;SDS011;10909;53.590;10.054;2023-06-26T10:00:41;7.05;;;6.35;;
21494;SDS011;10909;53.590;10.054;2023-06-26T10:03:08;7.57;;;6.50;;
21494;SDS011;10909;53.590;10.054;2023-06-26T10:05:35;5.45;;;4.97;;
21494;SDS011;10909;53.590;10.054;2023-06-26T10:08:04;6.00;;;5.45;;
21494;SDS011;10909;53.590;10.054;2023-06-26T10:10:35;6.55;;;5.95;;
21494;SDS011;10909;53.590;10.054;2023-06-26T10:13:04;7.05;;;6.35;;
21494;SDS011;10909;53.590;10.054;2023-06-26T10:15:40;5.95;;;5.45;;
21494;SDS011;10909;53.590;10.054;2023-06-26T10:18:10;5.88;;;5.38;;
21494;SDS011;10909;53.590;10.054;2023-06-26T10:20:38;6.45;;;5.85;;
21494;SDS011;10909;53.590;10.054;2023-06-26T10:23:05;6.70;;;5.53;;
21494;SDS011;10909;53.590;10.054;2023-06-26T10:25:34;6.25;;;5.55;;
21494;SDS011;10909;53.590;10.054;2023-06-26T10:28:02;6.88;;;6.18;;
21494;SDS011;10909;53.590;10.054;2023-06-26T10:30:31;9.60;;;6.57;;
21494;SDS011;10909;53.590;10.054;2023-06-26T10:32:59;6.85;;;5.70;;
21494;SDS011;10909;53.590;10.054;2023-06-26T10:35:28;6.05;;;4.40;;
21494;SDS011;10909;53.590;10.054;2023-06-26T10:38:02;4.22;;;3.65;;
21494;SDS011;10909;53.590;10.054;2023-06-26T10:40:44;4.18;;;3.83;;
21494;SDS011;10909;53.590;10.054;2023-06-26T10:43:15;4.47;;;4.07;;
21494;SDS011;10909;53.590;10.054;2023-06-26T10:45:43;4.57;;;3.70;;
21494;SDS011;10909;53.590;10.054;2023-06-26T10:48:12;4.07;;;3.45;;
21494;SDS011;10909;53.590;10.054;2023-06-26T10:50:39;4.50;;;3.60;;
21494;SDS011;10909;53.590;10.054;2023-06-26T10:55:56;2.60;;;2.00;;
21494;SDS011;10909;53.590;10.054;2023-06-26T10:58:30;3.22;;;2.80;;
21494;SDS011;10909;53.590;10.054;2023-06-26T11:04:00;5.00;;;3.15;;
21494;SDS011;10909;53.590;10.054;2023-06-26T11:06:31;4.45;;;3.60;;
21494;SDS011;10909;53.590;10.054;2023-06-26T11:14:19;6.75;;;4.47;;
21494;SDS011;10909;53.590;10.054;2023-06-26T11:16:46;5.47;;;4.65;;
21494;SDS011;10909;53.590;10.054;2023-06-26T11:19:13;7.55;;;4.85;;
21494;SDS011;10909;53.590;10.054;2023-06-26T11:21:39;5.40;;;4.90;;
21494;SDS011;10909;53.590;10.054;2023-06-26T11:24:08;6.15;;;4.72;;
21494;SDS011;10909;53.590;10.054;2023-06-26T11:26:41;4.95;;;4.05;;
21494;SDS011;10909;53.590;10.054;2023-06-26T11:29:08;5.15;;;4.15;;
21494;SDS011;10909;53.590;10.054;2023-06-26T11:31:35;5.20;;;3.65;;
21494;SDS011;10909;53.590;10.054;2023-06-26T11:34:06;5.93;;;3.97;;
21494;SDS011;10909;53.590;10.054;2023-06-26T11:36:37;5.13;;;3.67;;
21494;SDS011;10909;53.590;10.054;2023-06-26T11:39:07;7.72;;;3.97;;
21494;SDS011;10909;53.590;10.054;2023-06-26T11:41:39;6.20;;;3.75;;
21494;SDS011;10909;53.590;10.054;2023-06-26T11:44:06;7.05;;;3.83;;
21494;SDS011;10909;53.590;10.054;2023-06-26T11:46:34;7.22;;;3.60;;
21494;SDS011;10909;53.590;10.054;2023-06-26T11:49:07;7.78;;;4.03;;
21494;SDS011;10909;53.590;10.054;2023-06-26T11:51:33;5.00;;;4.13;;
21494;SDS011;10909;53.590;10.054;2023-06-26T11:54:02;7.03;;;3.70;;
21494;SDS011;10909;53.590;10.054;2023-06-26T11:56:29;7.03;;;3.88;;
21494;SDS011;10909;53.590;10.054;2023-06-26T11:59:01;5.57;;;2.97;;
21494;SDS011;10909;53.590;10.054;2023-06-26T12:01:35;5.15;;;3.00;;
21494;SDS011;10909;53.590;10.054;2023-06-26T12:04:05;6.85;;;2.80;;
21494;SDS011;10909;53.590;10.054;2023-06-26T12:06:33;3.80;;;2.35;;
21494;SDS011;10909;53.590;10.054;2023-06-26T12:09:05;5.57;;;2.10;;
21494;SDS011;10909;53.590;10.054;2023-06-26T12:11:34;4.80;;;2.53;;
21494;SDS011;10909;53.590;10.054;2023-06-26T12:14:05;5.50;;;2.67;;
21494;SDS011;10909;53.590;10.054;2023-06-26T12:16:32;3.63;;;1.90;;
21494;SDS011;10909;53.590;10.054;2023-06-26T12:18:59;6.47;;;2.10;;
21494;SDS011;10909;53.590;10.054;2023-06-26T12:24:02;7.10;;;2.38;;
21494;SDS011;10909;53.590;10.054;2023-06-26T12:26:29;7.22;;;2.58;;
21494;SDS011;10909;53.590;10.054;2023-06-26T12:29:11;2.92;;;1.75;;
21494;SDS011;10909;53.590;10.054;2023-06-26T12:31:42;6.50;;;2.10;;
21494;SDS011;10909;53.590;10.054;2023-06-26T12:34:10;5.10;;;2.33;;
21494;SDS011;10909;53.590;10.054;2023-06-26T12:36:46;4.68;;;2.05;;
21494;SDS011;10909;53.590;10.054;2023-06-26T12:39:15;3.92;;;2.00;;
21494;SDS011;10909;53.590;10.054;2023-06-26T12:46:48;5.93;;;3.05;;
21494;SDS011;10909;53.590;10.054;2023-06-26T12:49:14;3.90;;;2.20;;
21494;SDS011;10909;53.590;10.054;2023-06-26T12:51:41;2.58;;;1.90;;
21494;SDS011;10909;53.590;10.054;2023-06-26T12:54:07;3.30;;;2.00;;
21494;SDS011;10909;53.590;10.054;2023-06-26T12:56:33;4.13;;;2.22;;
21494;SDS011;10909;53.590;10.054;2023-06-26T12:58:59;3.20;;;2.10;;
21494;SDS011;10909;53.590;10.054;2023-06-26T13:01:26;3.58;;;2.60;;
21494;SDS011;10909;53.590;10.054;2023-06-26T13:03:53;3.45;;;2.30;;
21494;SDS011;10909;53.590;10.054;2023-06-26T13:06:20;3.53;;;2.10;;
21494;SDS011;10909;53.590;10.054;2023-06-26T13:08:46;3.50;;;2.00;;
21494;SDS011;10909;53.590;10.054;2023-06-26T13:11:11;5.00;;;1.92;;
21494;SDS011;10909;53.590;10.054;2023-06-26T13:13:37;3.58;;;1.92;;
21494;SDS011;10909;53.590;10.054;2023-06-26T13:16:03;2.80;;;1.77;;
21494;SDS011;10909;53.590;10.054;2023-06-26T13:18:30;3.03;;;2.15;;
21494;SDS011;10909;53.590;10.054;2023-06-26T13:20:55;6.07;;;2.30;;
21494;SDS011;10909;53.590;10.054;2023-06-26T13:23:21;2.30;;;1.63;;
21494;SDS011;10909;53.590;10.054;2023-06-26T13:25:47;4.00;;;2.22;;
21494;SDS011;10909;53.590;10.054;2023-06-26T13:28:13;2.95;;;1.80;;
21494;SDS011;10909;53.590;10.054;2023-06-26T13:30:38;2.22;;;1.80;;
21494;SDS011;10909;53.590;10.054;2023-06-26T13:33:05;5.03;;;2.10;;
21494;SDS011;10909;53.590;10.054;2023-06-26T13:35:31;2.20;;;1.77;;
21494;SDS011;10909;53.590;10.054;2023-06-26T13:37:57;3.17;;;2.00;;
21494;SDS011;10909;53.590;10.054;2023-06-26T13:40:23;4.50;;;2.10;;
21494;SDS011;10909;53.590;10.054;2023-06-26T13:42:48;3.33;;;2.05;;
21494;SDS011;10909;53.590;10.054;2023-06-26T13:45:14;3.65;;;1.52;;
21494;SDS011;10909;53.590;10.054;2023-06-26T13:47:39;3.15;;;1.80;;
21494;SDS011;10909;53.590;10.054;2023-06-26T13:50:09;3.58;;;1.73;;
21494;SDS011;10909;53.590;10.054;2023-06-26T13:52:35;2.80;;;1.80;;
21494;SDS011;10909;53.590;10.054;2023-06-26T13:55:01;2.00;;;1.58;;
21494;SDS011;10909;53.590;10.054;2023-06-26T13:57:30;3.50;;;1.88;;
21494;SDS011;10909;53.590;10.054;2023-06-26T13:59:56;2.88;;;1.60;;
21494;SDS011;10909;53.590;10.054;2023-06-26T14:02:22;3.35;;;1.85;;
21494;SDS011;10909;53.590;10.054;2023-06-26T14:04:49;3.28;;;1.83;;
21494;SDS011;10909;53.590;10.054;2023-06-26T14:07:14;3.20;;;1.70;;
21494;SDS011;10909;53.590;10.054;2023-06-26T14:09:40;2.88;;;1.52;;
21494;SDS011;10909;53.590;10.054;2023-06-26T14:12:08;2.08;;;1.58;;
21494;SDS011;10909;53.590;10.054;2023-06-26T14:14:34;3.30;;;1.73;;
21494;SDS011;10909;53.590;10.054;2023-06-26T14:16:59;3.53;;;1.85;;
21494;SDS011;10909;53.590;10.054;2023-06-26T14:19:27;3.25;;;1.40;;
21494;SDS011;10909;53.590;10.054;2023-06-26T14:21:53;3.80;;;1.70;;
21494;SDS011;10909;53.590;10.054;2023-06-26T14:24:18;3.35;;;1.98;;
21494;SDS011;10909;53.590;10.054;2023-06-26T14:26:44;4.65;;;1.88;;
21494;SDS011;10909;53.590;10.054;2023-06-26T14:29:10;3.00;;;1.60;;
21494;SDS011;10909;53.590;10.054;2023-06-26T14:31:35;2.22;;;1.60;;
21494;SDS011;10909;53.590;10.054;2023-06-26T14:34:01;1.92;;;1.50;;
21494;SDS011;10909;53.590;10.054;2023-06-26T14:36:28;2.03;;;1.50;;
21494;SDS011;10909;53.590;10.054;2023-06-26T14:38:56;2.78;;;1.60;;
21494;SDS011;10909;53.590;10.054;2023-06-26T14:41:21;1.80;;;1.40;;
21494;SDS011;10909;53.590;10.054;2023-06-26T14:43:48;3.03;;;1.60;;
21494;SDS011;10909;53.590;10.054;2023-06-26T14:46:15;2.05;;;1.50;;
21494;SDS011;10909;53.590;10.054;2023-06-26T14:48:41;1.65;;;1.50;;
21494;SDS011;10909;53.590;10.054;2023-06-26T14:51:07;2.42;;;1.50;;
21494;SDS011;10909;53.590;10.054;2023-06-26T14:53:33;1.95;;;1.50;;
21494;SDS011;10909;53.590;10.054;2023-06-26T14:55:59;1.95;;;1.40;;
21494;SDS011;10909;53.590;10.054;2023-06-26T14:58:24;2.33;;;1.23;;
21494;SDS011;10909;53.590;10.054;2023-06-26T15:00:50;2.50;;;1.50;;
21494;SDS011;10909;53.590;10.054;2023-06-26T15:03:16;1.90;;;1.48;;